Time;durP1;ratioP1;P1;durP2;ratioP2;P2;SDS_P1;SDS_P2;PMS_P1;PMS_P2;Temp;Humidity;BMP_temperature;BMP_pressure;BME280_temperature;BME280_humidity;BME280_pressure;Samples;Min_cycle;Max_cycle;Signal;HPM_P1;HPM_P2
2024/01/04 00:03:46;;;;;;;2.42;0.60;;;11.60;99.90;;;;;;10060934;28;20375;-69
2024/01/04 00:08:36;;;;;;;2.15;0.38;;;11.60;99.90;;;;;;10061481;28;20025;-69
2024/01/04 00:13:27;;;;;;;0.77;0.60;;;11.60;99.90;;;;;;10062719;28;20056;-68
2024/01/04 00:18:17;;;;;;;2.30;0.40;;;11.60;99.90;;;;;;10059940;28;20057;-70
2024/01/04 00:23:08;;;;;;;3.10;0.75;;;11.60;99.90;;;;;;10053451;28;20399;-69
2024/01/04 00:27:59;;;;;;;1.85;0.45;;;11.60;99.90;;;;;;10059770;28;20033;-70
2024/01/04 00:32:50;;;;;;;2.40;0.52;;;11.60;99.90;;;;;;10093730;28;20014;-69
2024/01/04 00:37:41;;;;;;;1.27;0.60;;;11.50;99.90;;;;;;10071674;28;20052;-70
2024/01/04 00:42:32;;;;;;;5.65;0.90;;;11.50;99.90;;;;;;10075824;28;20426;-68
2024/01/04 00:47:22;;;;;;;1.10;0.63;;;11.50;99.90;;;;;;10076820;28;20083;-68
2024/01/04 00:52:13;;;;;;;1.98;0.40;;;11.60;99.90;;;;;;10071706;28;20522;-70
2024/01/04 00:57:04;;;;;;;2.47;0.82;;;11.60;99.90;;;;;;10077864;28;20325;-70
2024/01/04 01:01:54;;;;;;;0.50;0.38;;;11.60;99.90;;;;;;10073308;28;20044;-70
2024/01/04 01:06:45;;;;;;;1.98;0.40;;;11.40;99.90;;;;;;10075408;28;20029;-69
2024/01/04 01:11:36;;;;;;;0.30;0.30;;;11.10;99.90;;;;;;10074968;28;20556;-70
2024/01/04 01:16:26;;;;;;;1.15;0.30;;;10.80;99.90;;;;;;10067763;28;20644;-73
2024/01/04 01:21:17;;;;;;;4.05;1.08;;;10.50;99.90;;;;;;10073573;28;20544;-70
2024/01/04 01:26:08;;;;;;;1.70;0.25;;;10.60;99.90;;;;;;10076578;28;20648;-70
2024/01/04 01:31:02;;;;;;;3.45;0.35;;;10.70;99.90;;;;;;10076320;28;20025;-70
2024/01/04 01:35:52;;;;;;;1.67;0.60;;;10.70;99.90;;;;;;10076344;28;20399;-71
2024/01/04 01:40:43;;;;;;;1.45;0.47;;;10.70;99.90;;;;;;10077898;28;20041;-71
2024/01/04 01:45:34;;;;;;;0.90;0.40;;;10.80;99.90;;;;;;10075395;28;20406;-73
2024/01/04 01:50:25;;;;;;;1.58;0.43;;;10.80;99.90;;;;;;10076162;28;20513;-72
2024/01/04 01:55:16;;;;;;;2.17;0.75;;;10.90;99.90;;;;;;10078603;28;20058;-71
2024/01/04 02:00:09;;;;;;;0.52;0.38;;;10.90;99.90;;;;;;10070795;28;20037;-73
2024/01/04 02:05:00;;;;;;;0.25;0.25;;;10.90;99.90;;;;;;10072784;28;20018;-71
2024/01/04 02:09:51;;;;;;;1.08;0.35;;;10.80;99.90;;;;;;10075176;28;20025;-70
2024/01/04 02:14:42;;;;;;;0.65;0.30;;;10.70;99.90;;;;;;10071092;28;20033;-75
2024/01/04 02:19:33;;;;;;;2.70;0.47;;;10.60;99.90;;;;;;10073639;28;20584;-70
2024/01/04 02:24:24;;;;;;;1.15;0.28;;;10.70;99.90;;;;;;10078626;28;20051;-73
2024/01/04 02:29:14;;;;;;;1.95;0.55;;;10.70;99.90;;;;;;10070010;28;20518;-71
2024/01/04 02:34:05;;;;;;;0.60;0.20;;;10.80;99.90;;;;;;10070094;28;20096;-74
2024/01/04 02:38:56;;;;;;;0.98;0.35;;;10.70;99.90;;;;;;10075065;28;20041;-74
2024/01/04 02:43:46;;;;;;;2.92;1.77;;;10.70;99.90;;;;;;10076017;28;20025;-72
2024/01/04 02:48:37;;;;;;;1.50;0.32;;;10.80;99.90;;;;;;10069061;28;20059;-70
2024/01/04 02:53:28;;;;;;;1.83;0.40;;;10.70;99.90;;;;;;10070174;28;20021;-73
2024/01/04 02:58:18;;;;;;;0.77;0.30;;;10.70;99.90;;;;;;10075033;28;20103;-74
2024/01/04 03:03:09;;;;;;;0.20;0.20;;;10.80;99.90;;;;;;10073127;28;20055;-75
2024/01/04 03:08:00;;;;;;;0.70;0.30;;;10.80;99.90;;;;;;10075677;28;20426;-76
2024/01/04 03:12:50;;;;;;;0.90;0.40;;;10.80;99.90;;;;;;10073493;28;20033;-71
2024/01/04 03:17:41;;;;;;;1.80;0.38;;;10.80;99.90;;;;;;10069246;28;20144;-75
2024/01/04 03:22:32;;;;;;;4.57;0.45;;;10.80;99.90;;;;;;10074718;28;20087;-73
2024/01/04 03:27:22;;;;;;;1.27;0.30;;;10.90;99.90;;;;;;10076813;28;20036;-75
2024/01/04 03:32:13;;;;;;;4.75;0.50;;;10.90;99.90;;;;;;10078941;28;20029;-72
2024/01/04 03:37:03;;;;;;;4.80;1.65;;;10.90;99.90;;;;;;10075699;28;20029;-69
2024/01/04 03:41:54;;;;;;;2.10;0.40;;;10.90;99.90;;;;;;10075998;28;20102;-73
2024/01/04 03:46:45;;;;;;;1.05;0.32;;;11.00;99.90;;;;;;10078029;28;20029;-74
2024/01/04 03:51:35;;;;;;;1.30;0.50;;;11.00;99.90;;;;;;10078711;28;20033;-73
2024/01/04 03:56:26;;;;;;;2.40;0.95;;;11.00;99.90;;;;;;10081170;28;20411;-74
2024/01/04 04:01:17;;;;;;;1.33;0.57;;;11.00;99.90;;;;;;10075395;28;20045;-73
2024/01/04 04:06:10;;;;;;;0.90;0.50;;;11.00;99.90;;;;;;10080100;28;20036;-74
2024/01/04 04:11:01;;;;;;;1.65;0.32;;;10.80;99.90;;;;;;10080127;28;20041;-77
2024/01/04 04:15:51;;;;;;;2.03;0.35;;;10.80;99.90;;;;;;10073975;28;20029;-72
2024/01/04 04:20:42;;;;;;;0.17;0.08;;;10.80;99.90;;;;;;10078149;28;20051;-74
2024/01/04 04:25:36;;;;;;;0.75;0.20;;;10.70;99.90;;;;;;10079421;28;20422;-72
2024/01/04 04:30:27;;;;;;;2.25;0.85;;;10.70;99.90;;;;;;10076928;28;20029;-73
2024/01/04 04:35:17;;;;;;;0.25;0.20;;;10.70;99.90;;;;;;10080197;28;20055;-77
2024/01/04 04:40:08;;;;;;;0.55;0.17;;;10.70;99.90;;;;;;10076222;28;20045;-74
2024/01/04 04:45:00;;;;;;;3.42;1.42;;;10.70;99.90;;;;;;10072501;28;20032;-76
2024/01/04 04:49:50;;;;;;;2.10;0.55;;;10.80;99.90;;;;;;10078958;28;20033;-74
2024/01/04 04:54:41;;;;;;;1.38;0.40;;;10.80;99.90;;;;;;10082153;28;20100;-73
2024/01/04 04:59:31;;;;;;;3.20;0.47;;;10.90;99.90;;;;;;10073260;28;20107;-75
2024/01/04 05:04:22;;;;;;;1.83;0.98;;;10.90;99.90;;;;;;10075470;28;20040;-75
2024/01/04 05:09:15;;;;;;;1.98;0.50;;;10.90;99.90;;;;;;10076381;28;20029;-76
2024/01/04 05:14:06;;;;;;;2.25;0.50;;;10.90;99.90;;;;;;10076659;28;20037;-75
2024/01/04 05:18:56;;;;;;;2.13;0.40;;;10.80;99.90;;;;;;10074374;28;20045;-76
2024/01/04 05:23:47;;;;;;;1.85;0.60;;;10.80;99.90;;;;;;10076291;28;20581;-73
2024/01/04 05:28:38;;;;;;;2.47;0.70;;;10.80;99.90;;;;;;10074240;28;20297;-74
2024/01/04 05:33:28;;;;;;;2.53;1.15;;;10.80;99.90;;;;;;10074123;28;20032;-70
2024/01/04 05:38:19;;;;;;;2.05;0.50;;;10.80;99.90;;;;;;10074219;28;20056;-69
2024/01/04 05:43:09;;;;;;;2.00;0.43;;;10.70;99.90;;;;;;10074594;28;20553;-69
2024/01/04 05:48:00;;;;;;;0.63;0.45;;;10.70;99.90;;;;;;10075276;28;20040;-71
2024/01/04 05:52:51;;;;;;;2.20;0.50;;;10.80;99.90;;;;;;10080265;28;20029;-69
2024/01/04 05:57:43;;;;;;;1.48;0.70;;;10.70;99.90;;;;;;10068060;28;20030;-73
2024/01/04 06:02:34;;;;;;;3.53;1.30;;;10.80;99.90;;;;;;10073077;28;20406;-72
2024/01/04 06:07:24;;;;;;;1.48;0.40;;;10.80;99.90;;;;;;10074723;28;20044;-73
2024/01/04 06:12:15;;;;;;;2.92;0.80;;;10.70;99.90;;;;;;10072641;28;20649;-72
2024/01/04 06:17:08;;;;;;;3.03;0.90;;;10.80;99.90;;;;;;10070364;28;20665;-71
2024/01/04 06:21:59;;;;;;;1.48;0.75;;;10.80;99.90;;;;;;10065927;28;20085;-69
2024/01/04 06:26:49;;;;;;;2.53;0.90;;;10.80;99.90;;;;;;10073955;28;20029;-69
2024/01/04 06:31:40;;;;;;;1.05;0.50;;;10.80;99.90;;;;;;10071877;28;20042;-73
2024/01/04 06:36:31;;;;;;;2.75;2.20;;;10.80;99.90;;;;;;10069492;28;20025;-71
2024/01/04 06:41:21;;;;;;;2.65;0.73;;;10.90;99.90;;;;;;10073703;28;20055;-70
2024/01/04 06:46:14;;;;;;;2.78;0.70;;;10.80;99.90;;;;;;10066623;28;20025;-72
2024/01/04 06:51:05;;;;;;;2.05;0.73;;;10.80;99.90;;;;;;10073703;28;20489;-71
2024/01/04 06:55:56;;;;;;;3.03;0.90;;;10.80;99.90;;;;;;10074790;28;20030;-73
2024/01/04 07:00:47;;;;;;;4.22;1.20;;;10.80;99.90;;;;;;10072523;28;20037;-72
2024/01/04 07:05:37;;;;;;;1.63;0.77;;;10.90;99.90;;;;;;10077256;28;20025;-76
2024/01/04 07:10:28;;;;;;;2.58;0.82;;;10.80;99.90;;;;;;10081790;28;20433;-72
2024/01/04 07:15:19;;;;;;;2.03;0.40;;;10.80;99.90;;;;;;10079773;28;20578;-71
2024/01/04 07:20:10;;;;;;;2.00;0.70;;;10.90;99.90;;;;;;10084102;28;20407;-69
2024/01/04 07:25:02;;;;;;;1.15;0.45;;;10.90;99.90;;;;;;10076638;28;20025;-71
2024/01/04 07:29:53;;;;;;;1.88;0.50;;;10.80;99.90;;;;;;10082746;28;20034;-70
2024/01/04 07:34:46;;;;;;;2.70;0.98;;;10.90;99.90;;;;;;10077877;28;20514;-70
2024/01/04 07:39:37;;;;;;;1.25;0.45;;;10.80;99.90;;;;;;10072320;28;20427;-75
2024/01/04 07:44:27;;;;;;;1.17;0.63;;;10.80;99.90;;;;;;10076899;28;20024;-69
2024/01/04 07:49:18;;;;;;;2.40;0.45;;;10.70;99.90;;;;;;10070863;28;20071;-72
2024/01/04 07:54:09;;;;;;;0.60;0.40;;;10.60;99.90;;;;;;10079906;28;20021;-80
2024/01/04 07:58:59;;;;;;;1.13;0.40;;;10.50;99.90;;;;;;10081804;28;20037;-79
2024/01/04 08:03:53;;;;;;;1.17;0.30;;;10.60;99.90;;;;;;10076270;28;20035;-76
2024/01/04 08:08:43;;;;;;;2.80;0.40;;;10.60;99.90;;;;;;10079350;28;20037;-75
2024/01/04 08:13:34;;;;;;;1.88;0.70;;;10.60;99.90;;;;;;10074623;28;20078;-74
2024/01/04 08:18:25;;;;;;;3.22;0.70;;;10.60;99.90;;;;;;10060415;28;20053;-73
2024/01/04 08:23:16;;;;;;;1.27;0.50;;;10.60;99.90;;;;;;10057960;28;20475;-76
2024/01/04 08:28:09;;;;;;;1.17;0.70;;;10.60;99.90;;;;;;10058433;28;20124;-75
2024/01/04 08:33:00;;;;;;;1.95;0.80;;;10.70;99.90;;;;;;10058987;28;20026;-74
2024/01/04 08:37:51;;;;;;;1.83;0.40;;;10.80;99.90;;;;;;10100004;28;20049;-75
2024/01/04 08:42:42;;;;;;;2.63;0.82;;;10.80;99.90;;;;;;10059479;28;20026;-76
2024/01/04 08:47:33;;;;;;;2.95;0.60;;;10.90;99.90;;;;;;10058552;28;20071;-74
2024/01/04 08:52:23;;;;;;;3.10;1.58;;;10.90;99.90;;;;;;10057435;28;20119;-72
2024/01/04 08:57:14;;;;;;;2.08;0.80;;;11.00;99.90;;;;;;10060995;28;20458;-78
2024/01/04 09:02:05;;;;;;;0.90;0.47;;;11.00;99.90;;;;;;10058580;28;20120;-73
2024/01/04 09:06:56;;;;;;;3.17;1.25;;;11.00;99.90;;;;;;10063624;28;20056;-72
2024/01/04 09:11:48;;;;;;;5.28;0.98;;;11.00;99.90;;;;;;10093534;28;20037;-69
2024/01/04 09:16:43;;;;;;;2.20;0.68;;;11.10;99.90;;;;;;10058481;28;20487;-71
2024/01/04 09:21:34;;;;;;;0.82;0.50;;;11.20;99.90;;;;;;10056454;28;20149;-69
2024/01/04 09:26:25;;;;;;;2.58;1.00;;;11.20;99.90;;;;;;10056700;28;20570;-76
2024/01/04 09:31:16;;;;;;;3.72;0.60;;;11.30;99.90;;;;;;10057879;28;20037;-76
2024/01/04 09:36:07;;;;;;;2.63;1.05;;;11.30;99.90;;;;;;10089280;28;20037;-78
2024/01/04 09:41:09;;;;;;;1.08;0.75;;;11.20;99.90;;;;;;10057152;28;20556;-74
2024/01/04 09:46:00;;;;;;;1.88;0.95;;;11.30;99.90;;;;;;10057592;28;20137;-75
2024/01/04 09:50:52;;;;;;;2.00;0.65;;;11.30;99.90;;;;;;10056505;28;20087;-73
2024/01/04 09:55:46;;;;;;;4.50;0.98;;;11.30;99.90;;;;;;10055671;28;20104;-74
2024/01/04 10:00:37;;;;;;;1.48;0.63;;;11.30;99.90;;;;;;10055673;28;20175;-74
2024/01/04 10:05:28;;;;;;;1.40;0.55;;;11.30;99.90;;;;;;10063528;28;20160;-74
2024/01/04 10:10:22;;;;;;;2.00;0.70;;;11.30;99.90;;;;;;10055879;28;20036;-71
2024/01/04 10:15:15;;;;;;;1.25;0.60;;;11.20;99.90;;;;;;10055677;28;20021;-72
2024/01/04 10:20:07;;;;;;;1.90;0.73;;;11.10;99.90;;;;;;10057955;28;20099;-72
2024/01/04 10:25:07;;;;;;;4.03;0.60;;;11.20;99.90;;;;;;10054648;28;20034;-72
2024/01/04 10:30:07;;;;;;;2.30;0.60;;;11.10;99.90;;;;;;10048696;28;20033;-71
2024/01/04 10:35:06;;;;;;;1.70;0.60;;;11.20;99.90;;;;;;10053093;28;20030;-69
2024/01/04 10:40:00;;;;;;;3.13;0.88;;;11.30;99.90;;;;;;10065319;28;20084;-68
2024/01/04 10:44:52;;;;;;;2.53;0.60;;;11.30;99.90;;;;;;10060182;28;20843;-68
2024/01/04 10:49:47;;;;;;;3.42;0.82;;;11.30;99.90;;;;;;10083190;28;20033;-72
2024/01/04 10:54:41;;;;;;;4.80;0.73;;;11.40;99.90;;;;;;10071273;28;20391;-74
2024/01/04 10:59:34;;;;;;;1.73;0.47;;;11.50;99.90;;;;;;10063695;28;20411;-69
2024/01/04 11:04:25;;;;;;;3.58;1.02;;;11.30;99.90;;;;;;10063919;28;20026;-71
2024/01/04 11:09:21;;;;;;;1.27;1.13;;;11.30;99.90;;;;;;10060291;28;20033;-70
2024/01/04 11:14:12;;;;;;;;;;;11.30;99.90;;;;;;10062572;28;20029;-67
2024/01/04 11:19:17;;;;;;;4.82;1.20;;;11.30;99.90;;;;;;10062926;28;19920;-68
2024/01/04 11:24:27;;;;;;;4.53;0.63;;;11.30;99.90;;;;;;10054599;28;20093;-69
2024/01/04 11:29:19;;;;;;;1.20;0.70;;;11.30;99.90;;;;;;10051926;28;20593;-69
2024/01/04 11:34:18;;;;;;;2.20;0.68;;;11.30;99.90;;;;;;10058812;28;20032;-67
2024/01/04 11:39:10;;;;;;;2.92;0.95;;;11.30;99.90;;;;;;10053960;28;20041;-67
2024/01/04 11:44:02;;;;;;;2.47;0.60;;;11.30;99.90;;;;;;10048245;28;20029;-69
2024/01/04 11:48:54;;;;;;;3.13;1.23;;;11.30;99.90;;;;;;10057719;28;20562;-65
2024/01/04 11:53:46;;;;;;;3.75;0.63;;;11.40;99.90;;;;;;10060755;28;20049;-65
2024/01/04 11:58:37;;;;;;;1.92;0.47;;;11.30;99.90;;;;;;10055890;28;20982;-70
2024/01/04 12:03:29;;;;;;;1.08;0.75;;;11.40;99.90;;;;;;10057894;28;20124;-68
2024/01/04 12:08:33;;;;;;;1.05;0.60;;;11.30;99.90;;;;;;10053777;28;20176;-68
2024/01/04 12:13:24;;;;;;;2.17;0.80;;;11.50;99.90;;;;;;10064606;28;20025;-67
2024/01/04 12:18:18;;;;;;;3.75;1.25;;;11.60;99.90;;;;;;10058570;28;20055;-69
2024/01/04 12:23:10;;;;;;;3.58;0.77;;;11.50;99.90;;;;;;10058616;28;20061;-68
2024/01/04 12:28:02;;;;;;;1.65;0.50;;;11.60;99.90;;;;;;10057288;28;20120;-68
2024/01/04 12:32:55;;;;;;;3.15;0.60;;;11.60;99.90;;;;;;10060100;28;20124;-67
2024/01/04 12:37:46;;;;;;;2.65;0.82;;;11.70;99.90;;;;;;10059233;28;20110;-67
2024/01/04 12:42:38;;;;;;;2.35;1.10;;;11.60;99.90;;;;;;10068731;28;20039;-67
2024/01/04 12:47:31;;;;;;;1.73;1.20;;;11.60;99.90;;;;;;10073226;28;20108;-67
2024/01/04 12:52:21;;;;;;;0.60;0.57;;;11.70;99.90;;;;;;10072264;28;20142;-67
2024/01/04 12:57:12;;;;;;;2.90;0.52;;;11.70;99.90;;;;;;10069172;28;20071;-68
2024/01/04 13:02:03;;;;;;;1.83;0.60;;;11.70;99.90;;;;;;10075004;28;20045;-67
2024/01/04 13:06:54;;;;;;;1.17;0.50;;;11.70;99.90;;;;;;10072209;28;20030;-67
2024/01/04 13:11:45;;;;;;;2.53;0.93;;;11.80;99.90;;;;;;10075957;28;20032;-70
2024/01/04 13:16:35;;;;;;;2.13;1.02;;;11.80;99.90;;;;;;10074999;28;20029;-70
2024/01/04 13:21:26;;;;;;;1.95;0.88;;;11.80;99.90;;;;;;10073261;28;20049;-68
2024/01/04 13:26:18;;;;;;;2.38;1.00;;;11.90;99.90;;;;;;10075703;28;20017;-71
2024/01/04 13:31:09;;;;;;;4.20;0.93;;;11.90;99.90;;;;;;10076774;28;20045;-68
2024/01/04 13:35:59;;;;;;;5.38;0.90;;;12.00;99.90;;;;;;10070331;28;20017;-70
2024/01/04 13:40:52;;;;;;;4.70;0.77;;;11.90;99.90;;;;;;10072488;28;20039;-71
2024/01/04 13:45:43;;;;;;;1.90;1.10;;;11.90;99.90;;;;;;10069657;28;20022;-69
2024/01/04 13:50:33;;;;;;;2.75;1.60;;;11.90;99.90;;;;;;10071979;28;20032;-70
2024/01/04 13:55:24;;;;;;;2.22;1.02;;;12.00;99.90;;;;;;10077685;28;20017;-69
2024/01/04 14:00:15;;;;;;;4.72;0.70;;;11.90;99.90;;;;;;10068306;28;20045;-71
2024/01/04 14:05:08;;;;;;;5.40;0.90;;;11.90;99.90;;;;;;10074329;28;20025;-71
2024/01/04 14:09:59;;;;;;;2.33;0.68;;;11.90;99.90;;;;;;10075509;28;20087;-69
2024/01/04 14:14:50;;;;;;;3.33;0.90;;;11.90;99.90;;;;;;10073277;28;20508;-66
2024/01/04 14:19:40;;;;;;;3.03;0.98;;;11.90;99.90;;;;;;10072586;28;20069;-71
2024/01/04 14:24:32;;;;;;;3.78;1.00;;;11.90;99.90;;;;;;10075279;28;20065;-75
2024/01/04 14:29:23;;;;;;;2.33;0.70;;;11.90;99.90;;;;;;10073480;28;20441;-77
2024/01/04 14:34:13;;;;;;;2.75;1.70;;;11.80;99.90;;;;;;10068809;28;20025;-75
2024/01/04 14:39:04;;;;;;;2.42;1.02;;;11.90;99.90;;;;;;10078494;28;20793;-76
2024/01/04 14:43:55;;;;;;;2.50;1.15;;;11.90;99.90;;;;;;10070093;28;20053;-71
2024/01/04 14:48:46;;;;;;;3.72;1.35;;;11.90;99.90;;;;;;10073571;28;20124;-71
2024/01/04 14:53:37;;;;;;;4.22;1.40;;;11.90;99.90;;;;;;10076772;28;20558;-70
2024/01/04 14:58:28;;;;;;;8.15;1.80;;;11.90;99.90;;;;;;10068862;28;20049;-76
2024/01/04 15:03:18;;;;;;;2.35;1.02;;;11.90;99.90;;;;;;10071387;28;20087;-69
2024/01/04 15:08:09;;;;;;;1.33;0.70;;;11.80;99.90;;;;;;10070662;28;20512;-71
2024/01/04 15:13:00;;;;;;;1.88;0.70;;;11.80;99.90;;;;;;10073483;28;20025;-69
2024/01/04 15:17:50;;;;;;;2.55;1.00;;;11.80;99.90;;;;;;10069690;28;20438;-74
2024/01/04 15:22:41;;;;;;;2.38;1.00;;;11.70;99.90;;;;;;10073942;28;20071;-74
2024/01/04 15:27:32;;;;;;;2.05;1.38;;;11.70;99.90;;;;;;10078705;28;20091;-71
2024/01/04 15:32:24;;;;;;;2.65;0.93;;;11.60;99.90;;;;;;10067509;28;20402;-72
2024/01/04 15:37:14;;;;;;;1.10;0.98;;;11.70;99.90;;;;;;10061769;28;20021;-76
2024/01/04 15:42:05;;;;;;;1.92;0.60;;;11.60;99.90;;;;;;10061660;28;20045;-73
2024/01/04 15:46:56;;;;;;;4.18;0.95;;;11.60;99.90;;;;;;10061773;28;20071;-70
2024/01/04 15:51:47;;;;;;;3.40;0.77;;;11.60;99.90;;;;;;10061361;28;20422;-72
2024/01/04 15:56:38;;;;;;;1.85;0.75;;;11.60;99.90;;;;;;10061187;28;20033;-76
2024/01/04 16:01:28;;;;;;;3.97;1.08;;;11.60;99.90;;;;;;10060312;28;20045;-71
2024/01/04 16:06:19;;;;;;;2.30;0.80;;;11.60;99.90;;;;;;10060795;28;20388;-70
2024/01/04 16:11:11;;;;;;;3.03;0.90;;;11.60;99.90;;;;;;10066201;28;20486;-72
2024/01/04 16:16:03;;;;;;;2.95;1.10;;;11.60;99.90;;;;;;10060429;28;20468;-73
2024/01/04 16:20:53;;;;;;;3.22;1.10;;;11.70;99.90;;;;;;10059170;28;20060;-67
2024/01/04 16:25:44;;;;;;;3.17;0.98;;;11.70;99.90;;;;;;10059062;28;20029;-71
2024/01/04 16:30:35;;;;;;;2.75;1.10;;;11.60;99.90;;;;;;10081406;28;20496;-71
2024/01/04 16:35:25;;;;;;;3.78;1.27;;;11.70;99.90;;;;;;10059289;28;20030;-69
2024/01/04 16:40:16;;;;;;;2.25;1.17;;;11.70;99.90;;;;;;10059902;28;20045;-73
2024/01/04 16:45:08;;;;;;;1.80;1.20;;;11.70;99.90;;;;;;10061653;28;20026;-69
2024/01/04 16:49:59;;;;;;;2.83;1.00;;;11.70;99.90;;;;;;10060920;28;20448;-74
2024/01/04 16:54:50;;;;;;;2.63;1.15;;;11.70;99.90;;;;;;10060455;28;20017;-70
2024/01/04 16:59:40;;;;;;;4.50;1.40;;;11.60;99.90;;;;;;10060376;28;20415;-70
2024/01/04 17:04:31;;;;;;;2.83;1.70;;;11.60;99.90;;;;;;10059847;28;20025;-69
2024/01/04 17:09:24;;;;;;;6.63;2.05;;;11.50;99.90;;;;;;10062427;28;20060;-76
2024/01/04 17:14:15;;;;;;;5.03;2.03;;;11.50;99.90;;;;;;10068644;28;20021;-71
2024/01/04 17:19:06;;;;;;;2.60;1.60;;;11.50;99.90;;;;;;10060727;28;20053;-75
2024/01/04 17:23:57;;;;;;;4.80;1.45;;;11.50;99.90;;;;;;10060124;28;20397;-73
2024/01/04 17:28:47;;;;;;;2.78;1.60;;;11.50;99.90;;;;;;10059933;28;20047;-72
2024/01/04 17:33:38;;;;;;;3.47;1.45;;;11.50;99.90;;;;;;10059961;28;20037;-71
2024/01/04 17:38:29;;;;;;;5.30;2.03;;;11.40;99.90;;;;;;10062799;28;20499;-69
2024/01/04 17:43:19;;;;;;;4.22;1.50;;;11.40;99.90;;;;;;10059197;28;20032;-74
2024/01/04 17:48:10;;;;;;;3.13;1.23;;;11.30;99.90;;;;;;10055564;28;20044;-72
2024/01/04 17:53:00;;;;;;;7.47;1.92;;;11.40;99.90;;;;;;10064928;28;20044;-73
2024/01/04 17:57:52;;;;;;;7.30;1.63;;;11.30;99.90;;;;;;10058700;28;20495;-74
2024/01/04 18:02:42;;;;;;;7.68;2.40;;;11.30;99.90;;;;;;10095856;28;20408;-73
2024/01/04 18:07:33;;;;;;;4.82;1.85;;;11.20;99.90;;;;;;10094347;28;20029;-72
2024/01/04 18:12:24;;;;;;;3.33;1.27;;;11.30;99.90;;;;;;10066217;28;20030;-70
2024/01/04 18:17:17;;;;;;;5.70;1.48;;;11.20;99.90;;;;;;10054904;28;20021;-67
2024/01/04 18:22:07;;;;;;;4.88;1.83;;;11.20;99.90;;;;;;10055478;28;20052;-68
2024/01/04 18:26:58;;;;;;;5.97;1.75;;;11.20;99.90;;;;;;10056138;28;20030;-67
2024/01/04 18:31:49;;;;;;;3.45;1.35;;;11.20;99.90;;;;;;10057343;28;20056;-67
2024/01/04 18:36:39;;;;;;;4.63;1.63;;;11.20;99.90;;;;;;10056197;28;20041;-67
2024/01/04 18:41:30;;;;;;;5.93;2.35;;;11.10;99.90;;;;;;10054477;28;20112;-67
2024/01/04 18:46:21;;;;;;;6.18;1.90;;;11.00;99.90;;;;;;10054069;28;20053;-66
2024/01/04 18:51:11;;;;;;;7.22;2.55;;;11.10;99.90;;;;;;10055444;28;20029;-67
2024/01/04 18:56:02;;;;;;;6.25;1.90;;;11.00;99.90;;;;;;10057081;28;20403;-65
2024/01/04 19:00:53;;;;;;;6.05;2.00;;;11.00;99.90;;;;;;10063414;28;20045;-65
2024/01/04 19:05:43;;;;;;;4.55;1.88;;;11.00;99.90;;;;;;10062013;28;20467;-66
2024/01/04 19:10:34;;;;;;;4.80;2.55;;;11.00;99.90;;;;;;10061480;28;20029;-67
2024/01/04 19:15:27;;;;;;;5.07;2.20;;;11.00;99.90;;;;;;10063634;28;20079;-67
2024/01/04 19:20:18;;;;;;;6.90;2.25;;;11.00;99.90;;;;;;10059401;28;20052;-66
2024/01/04 19:25:08;;;;;;;5.97;1.95;;;11.00;99.90;;;;;;10058114;28;20037;-65
2024/01/04 19:29:59;;;;;;;6.45;2.60;;;10.90;99.90;;;;;;10059907;28;20035;-66
2024/01/04 19:34:50;;;;;;;7.35;2.13;;;10.90;99.90;;;;;;10057568;28;20138;-64
2024/01/04 19:39:40;;;;;;;7.53;3.50;;;10.90;99.90;;;;;;10058303;28;20046;-64
2024/01/04 19:44:31;;;;;;;6.72;2.17;;;10.90;99.90;;;;;;10058735;28;20499;-64
2024/01/04 19:49:22;;;;;;;8.75;2.97;;;10.80;99.90;;;;;;10058615;28;20055;-70
2024/01/04 19:54:15;;;;;;;6.13;2.92;;;10.80;99.90;;;;;;10059708;28;20033;-65
2024/01/04 19:59:07;;;;;;;6.03;2.83;;;10.80;99.90;;;;;;10058798;28;20047;-65
2024/01/04 20:03:57;;;;;;;6.25;3.38;;;10.80;99.90;;;;;;10056426;28;20079;-65
2024/01/04 20:08:48;;;;;;;10.70;2.88;;;10.80;99.90;;;;;;10055373;28;20034;-66
2024/01/04 20:13:38;;;;;;;8.05;2.58;;;10.80;99.90;;;;;;10058213;28;20087;-69
2024/01/04 20:18:29;;;;;;;8.43;2.40;;;10.80;99.90;;;;;;10057678;28;20404;-67
2024/01/04 20:23:20;;;;;;;4.82;2.25;;;10.80;99.90;;;;;;10058150;28;20030;-67
2024/01/04 20:28:11;;;;;;;7.10;2.67;;;10.80;99.90;;;;;;10059746;28;20032;-67
2024/01/04 20:33:01;;;;;;;8.30;2.88;;;10.80;99.90;;;;;;10061306;28;20033;-70
2024/01/04 20:37:53;;;;;;;4.43;2.35;;;10.80;99.90;;;;;;10056707;28;20068;-68
2024/01/04 20:42:44;;;;;;;7.55;2.42;;;10.70;99.90;;;;;;10059916;28;20531;-68
2024/01/04 20:47:35;;;;;;;6.47;2.17;;;10.70;99.90;;;;;;10054072;28;20041;-69
2024/01/04 20:52:26;;;;;;;6.57;2.88;;;10.70;99.90;;;;;;10053432;28;20026;-71
2024/01/04 20:57:16;;;;;;;5.35;2.50;;;10.70;99.90;;;;;;10054665;28;20037;-72
2024/01/04 21:02:07;;;;;;;4.47;3.00;;;10.60;99.90;;;;;;10055942;28;20046;-70
2024/01/04 21:06:58;;;;;;;5.55;2.63;;;10.60;99.90;;;;;;10055740;28;20045;-70
2024/01/04 21:11:51;;;;;;;3.80;2.30;;;10.60;99.90;;;;;;10051240;28;20038;-67
2024/01/04 21:16:42;;;;;;;4.40;2.10;;;10.60;99.90;;;;;;10052611;28;20029;-69
2024/01/04 21:21:32;;;;;;;6.22;2.35;;;10.50;99.90;;;;;;10044911;28;20049;-72
2024/01/04 21:26:23;;;;;;;5.00;2.00;;;10.60;99.90;;;;;;10041254;28;20131;-67
2024/01/04 21:31:14;;;;;;;7.22;2.58;;;10.60;99.90;;;;;;10046611;28;20037;-67
2024/01/04 21:36:05;;;;;;;5.28;1.98;;;10.60;99.90;;;;;;10051606;28;20495;-65
2024/01/04 21:40:55;;;;;;;4.15;2.33;;;10.60;99.90;;;;;;10046226;28;20045;-65
2024/01/04 21:45:46;;;;;;;4.35;1.65;;;10.60;99.90;;;;;;10055831;28;20717;-68
2024/01/04 21:50:38;;;;;;;3.83;1.70;;;10.60;99.90;;;;;;10056292;28;20624;-65
2024/01/04 21:55:30;;;;;;;7.10;2.53;;;10.60;99.90;;;;;;10074961;28;20511;-69
2024/01/04 22:00:21;;;;;;;5.00;1.85;;;10.60;99.90;;;;;;10069674;28;20099;-64
2024/01/04 22:05:11;;;;;;;6.60;2.25;;;10.60;99.90;;;;;;10070455;28;20033;-64
2024/01/04 22:10:02;;;;;;;7.28;3.90;;;10.60;99.90;;;;;;10067940;28;20056;-66
2024/01/04 22:14:53;;;;;;;6.68;2.60;;;10.60;99.90;;;;;;10068271;28;20021;-66
2024/01/04 22:19:43;;;;;;;5.68;2.45;;;10.60;99.90;;;;;;10056654;28;20090;-65
2024/01/04 22:24:36;;;;;;;4.97;2.33;;;10.60;99.90;;;;;;10043435;28;20022;-66
2024/01/04 22:29:27;;;;;;;7.35;2.45;;;10.60;99.90;;;;;;10048661;28;20167;-66
2024/01/04 22:34:17;;;;;;;3.80;1.70;;;10.50;99.90;;;;;;10048540;28;20144;-65
2024/01/04 22:39:08;;;;;;;6.68;2.13;;;10.60;99.90;;;;;;10044735;28;20045;-67
2024/01/04 22:43:59;;;;;;;4.85;1.95;;;10.50;99.90;;;;;;10055779;28;20144;-65
2024/01/04 22:48:49;;;;;;;5.80;1.77;;;10.50;99.90;;;;;;10061703;28;20037;-67
2024/01/04 22:53:40;;;;;;;3.90;1.95;;;10.50;99.90;;;;;;10055534;28;20116;-69
2024/01/04 22:58:31;;;;;;;6.43;2.78;;;10.50;99.90;;;;;;10054793;28;20056;-66
2024/01/04 23:03:21;;;;;;;7.07;2.72;;;10.40;99.90;;;;;;10055112;28;20060;-68
2024/01/04 23:08:12;;;;;;;4.80;1.70;;;10.40;99.90;;;;;;10049272;28;20531;-66
2024/01/04 23:13:03;;;;;;;3.83;2.00;;;10.30;99.90;;;;;;10052848;28;20036;-70
2024/01/04 23:17:54;;;;;;;5.45;2.30;;;10.30;99.90;;;;;;10053909;28;20049;-70
2024/01/04 23:22:45;;;;;;;3.28;1.58;;;10.30;99.90;;;;;;10057599;28;20122;-66
2024/01/04 23:27:36;;;;;;;6.55;1.95;;;10.30;99.90;;;;;;10056525;28;20033;-67
2024/01/04 23:32:26;;;;;;;8.90;2.13;;;10.20;99.90;;;;;;10054212;28;20083;-67
2024/01/04 23:37:18;;;;;;;8.70;2.17;;;10.20;99.90;;;;;;10054402;28;20030;-66
2024/01/04 23:42:09;;;;;;;4.63;1.77;;;10.20;99.90;;;;;;10055800;28;20599;-66
2024/01/04 23:46:59;;;;;;;5.28;2.10;;;10.20;99.90;;;;;;10061096;28;20090;-68
2024/01/04 23:51:50;;;;;;;4.10;2.05;;;10.10;99.90;;;;;;10061270;28;20156;-67
2024/01/04 23:56:41;;;;;;;3.42;2.00;;;10.20;99.90;;;;;;10057492;28;20033;-67
